createdAt,value
2018-07-04T00:01:34.621Z,2.30
2018-07-04T00:04:23.789Z,2.80
2018-07-04T00:10:10.176Z,2.40
2018-07-04T00:12:50.772Z,2.27
2018-07-04T00:18:30.564Z,2.40
2018-07-04T00:21:29.747Z,2.60
2018-07-04T00:24:13.151Z,2.30
2018-07-04T00:26:57.369Z,2.30
2018-07-04T00:29:45.667Z,2.53
2018-07-04T00:32:36.834Z,2.60
2018-07-04T00:38:11.952Z,2.20
2018-07-04T00:40:58.647Z,2.63
2018-07-04T00:43:50.161Z,2.30
2018-07-04T00:49:25.528Z,2.80
2018-07-04T00:55:01.194Z,2.30
2018-07-04T01:00:39.480Z,2.73
2018-07-04T01:03:24.498Z,3.00
2018-07-04T01:06:08.068Z,2.57
2018-07-04T01:08:52.536Z,2.73
2018-07-04T01:11:38.224Z,2.50
2018-07-04T01:14:30.922Z,2.37
2018-07-04T01:17:16.762Z,2.63
2018-07-04T01:25:55.111Z,2.10
2018-07-04T01:31:35.497Z,2.47
2018-07-04T01:34:18.118Z,2.67
2018-07-04T01:37:01.082Z,2.97
2018-07-04T01:39:43.801Z,2.60
2018-07-04T01:42:25.841Z,2.60
2018-07-04T01:45:08.199Z,2.67
2018-07-04T01:47:47.800Z,2.57
2018-07-04T01:50:33.607Z,2.83
2018-07-04T01:53:18.405Z,2.50
2018-07-04T01:56:00.305Z,2.67
2018-07-04T01:58:44.563Z,2.60
2018-07-04T02:01:29.197Z,2.50
2018-07-04T02:04:10.314Z,2.80
2018-07-04T02:06:59.026Z,2.80
2018-07-04T02:09:39.646Z,2.57
2018-07-04T02:12:25.686Z,2.57
2018-07-04T02:15:16.919Z,2.90
2018-07-04T02:21:15.172Z,2.63
2018-07-04T02:24:03.442Z,2.70
2018-07-04T02:26:48.683Z,2.67
2018-07-04T02:32:42.562Z,2.80
2018-07-04T02:35:24.097Z,2.70
2018-07-04T02:40:58.696Z,2.50
2018-07-04T02:43:42.846Z,2.63
2018-07-04T02:46:30.497Z,2.53
2018-07-04T02:49:10.068Z,2.73
2018-07-04T02:51:58.867Z,2.70
2018-07-04T02:54:43.008Z,2.53
2018-07-04T02:57:26.319Z,4.37
2018-07-04T03:00:13.674Z,5.13
2018-07-04T03:02:55.879Z,3.37
2018-07-04T03:05:43.588Z,3.00
2018-07-04T03:08:25.000Z,2.97
2018-07-04T03:11:08.933Z,2.57
2018-07-04T03:13:54.314Z,2.80
2018-07-04T03:16:50.439Z,2.80
2018-07-04T03:19:32.022Z,2.60
2018-07-04T03:22:12.342Z,3.00
2018-07-04T03:24:56.086Z,2.80
2018-07-04T03:27:38.867Z,2.80
2018-07-04T03:30:21.927Z,2.60
2018-07-04T03:33:03.894Z,3.00
2018-07-04T03:35:44.737Z,3.10
2018-07-04T03:38:25.078Z,2.83
2018-07-04T03:41:06.394Z,2.93
2018-07-04T03:43:48.223Z,3.00
2018-07-04T03:46:29.195Z,3.10
2018-07-04T03:49:09.568Z,3.10
2018-07-04T03:51:53.407Z,3.10
2018-07-04T03:54:34.858Z,2.97
2018-07-04T03:57:16.526Z,3.00
2018-07-04T03:59:56.994Z,3.20
2018-07-04T04:02:37.770Z,2.93
2018-07-04T04:05:38.591Z,3.00
2018-07-04T04:08:24.022Z,3.23
2018-07-04T05:02:45.060Z,2.93
2018-07-04T05:05:25.848Z,3.07
2018-07-04T05:08:06.734Z,3.03
2018-07-04T05:10:46.986Z,3.30
2018-07-04T05:13:30.052Z,3.50
2018-07-04T05:19:33.700Z,3.13
2018-07-04T05:22:25.193Z,2.90
2018-07-04T05:25:23.012Z,3.03
2018-07-04T05:28:14.128Z,2.87
2018-07-04T05:30:58.788Z,3.40
2018-07-04T05:33:46.175Z,2.90
2018-07-04T05:36:33.178Z,3.05
2018-07-04T05:39:15.172Z,3.00
2018-07-04T05:45:15.830Z,2.97
2018-07-04T05:47:56.990Z,2.47
2018-07-04T05:50:37.383Z,2.90
2018-07-04T05:53:18.033Z,3.05
2018-07-04T05:55:58.149Z,3.27
2018-07-04T06:04:34.953Z,3.10
2018-07-04T06:13:54.552Z,2.60
2018-07-04T06:19:33.436Z,2.75
2018-07-04T06:22:13.051Z,3.33
2018-07-04T06:24:52.643Z,3.30
2018-07-04T06:27:32.202Z,3.20
2018-07-04T06:30:11.747Z,2.87
2018-07-04T06:32:51.343Z,2.85
2018-07-04T06:35:30.913Z,2.60
2018-07-04T06:37:58.133Z,3.00
2018-07-04T06:40:25.347Z,2.87
2018-07-04T06:42:52.538Z,2.90
2018-07-04T06:45:19.755Z,2.80
2018-07-04T06:47:46.928Z,2.95
2018-07-04T06:50:14.212Z,2.60
2018-07-04T06:52:41.414Z,2.77
2018-07-04T06:55:08.609Z,2.62
2018-07-04T06:57:35.924Z,2.87
2018-07-04T07:00:03.197Z,2.70
2018-07-04T07:02:30.423Z,2.27
2018-07-04T07:05:09.830Z,2.72
2018-07-04T07:07:49.277Z,2.87
2018-07-04T07:10:28.672Z,2.47
2018-07-04T07:13:08.099Z,2.62
2018-07-04T07:15:47.654Z,2.37
2018-07-04T07:18:27.125Z,2.60
2018-07-04T07:21:06.648Z,2.80
2018-07-04T07:23:46.101Z,2.33
2018-07-04T07:26:25.570Z,2.77
2018-07-04T07:29:05.059Z,2.50
2018-07-04T07:31:44.570Z,2.90
2018-07-04T07:34:24.082Z,2.60
2018-07-04T07:37:03.514Z,2.77
2018-07-04T07:39:43.083Z,2.52
2018-07-04T07:42:22.676Z,2.47
2018-07-04T07:45:02.514Z,2.58
2018-07-04T07:47:42.061Z,2.60
2018-07-04T07:50:21.574Z,2.67
2018-07-04T07:53:01.076Z,2.50
2018-07-04T07:55:40.477Z,2.70
2018-07-04T07:58:20.038Z,2.52
2018-07-04T08:00:59.619Z,3.00
2018-07-04T08:03:39.069Z,3.10
2018-07-04T08:06:18.514Z,2.80
2018-07-04T08:08:57.922Z,2.70
2018-07-04T08:11:37.495Z,3.12
2018-07-04T08:14:17.051Z,2.55
2018-07-04T08:16:56.465Z,2.75
2018-07-04T08:19:36.043Z,2.65
2018-07-04T08:22:15.324Z,2.40
2018-07-04T08:24:54.643Z,2.70
2018-07-04T08:27:34.196Z,2.72
2018-07-04T08:30:13.658Z,2.80
2018-07-04T08:32:53.302Z,2.52
2018-07-04T08:35:32.814Z,2.70
2018-07-04T08:38:12.391Z,2.90
2018-07-04T08:40:51.963Z,2.77
2018-07-04T08:43:31.426Z,2.62
2018-07-04T08:46:10.928Z,2.55
2018-07-04T08:48:50.377Z,2.17
2018-07-04T08:51:29.874Z,2.20
2018-07-04T08:54:09.228Z,2.47
2018-07-04T08:56:48.546Z,2.67
2018-07-04T08:59:28.306Z,2.15
2018-07-04T09:02:07.914Z,2.15
2018-07-04T09:04:47.443Z,1.67
2018-07-04T09:07:26.871Z,1.87
2018-07-04T09:10:06.443Z,1.55
2018-07-04T09:12:46.006Z,2.17
2018-07-04T09:15:25.538Z,1.80
2018-07-04T09:18:05.055Z,1.72
2018-07-04T09:20:44.627Z,1.80
2018-07-04T09:23:24.060Z,2.10
2018-07-04T09:26:03.566Z,1.90
2018-07-04T09:28:43.114Z,1.90
2018-07-04T09:31:22.676Z,2.00
2018-07-04T09:34:02.239Z,1.90
2018-07-04T09:36:41.785Z,2.10
2018-07-04T09:39:21.286Z,1.90
2018-07-04T09:42:00.760Z,2.35
2018-07-04T09:44:40.340Z,2.30
2018-07-04T09:47:19.861Z,2.55
2018-07-04T09:49:59.303Z,2.58
2018-07-04T09:52:38.840Z,2.15
2018-07-04T09:55:18.394Z,2.40
2018-07-04T09:57:57.996Z,2.52
2018-07-04T10:01:41.834Z,2.50
2018-07-04T10:04:21.374Z,2.65
2018-07-04T10:07:00.907Z,2.40
2018-07-04T10:09:40.267Z,2.30
2018-07-04T10:12:19.823Z,2.50
2018-07-04T10:14:59.291Z,2.40
2018-07-04T10:17:38.879Z,2.40
2018-07-04T10:20:18.562Z,2.80
2018-07-04T10:22:57.920Z,3.33
2018-07-04T10:25:37.394Z,3.30
2018-07-04T10:28:16.954Z,3.30
2018-07-04T10:30:56.502Z,3.50
2018-07-04T10:33:35.787Z,3.60
2018-07-04T10:36:15.302Z,4.00
2018-07-04T10:38:54.781Z,3.70
2018-07-04T10:41:34.294Z,3.27
2018-07-04T10:44:13.879Z,3.42
2018-07-04T10:46:53.299Z,3.50
2018-07-04T10:49:32.918Z,3.10
2018-07-04T10:52:12.514Z,3.30
2018-07-04T10:54:52.245Z,3.40
2018-07-04T10:57:31.766Z,3.70
2018-07-04T11:00:11.214Z,3.33
2018-07-04T11:02:50.663Z,3.60
2018-07-04T11:05:30.302Z,3.87
2018-07-04T11:08:09.773Z,3.60
2018-07-04T11:10:49.490Z,3.80
2018-07-04T11:13:28.870Z,3.50
2018-07-04T11:16:08.351Z,3.08
2018-07-04T11:18:47.988Z,4.00
2018-07-04T11:21:27.580Z,3.72
2018-07-04T11:24:07.382Z,3.80
2018-07-04T11:26:46.804Z,3.40
2018-07-04T11:29:26.207Z,3.70
2018-07-04T11:32:05.534Z,3.70
2018-07-04T11:34:45.035Z,4.12
2018-07-04T11:37:24.478Z,4.00
2018-07-04T11:40:03.926Z,3.50
2018-07-04T11:42:43.348Z,3.98
2018-07-04T11:45:22.790Z,3.35
2018-07-04T11:47:49.958Z,4.10
2018-07-04T11:50:17.179Z,3.72
2018-07-04T11:52:44.389Z,4.10
2018-07-04T11:55:11.727Z,3.98
2018-07-04T11:57:38.937Z,3.60
2018-07-04T12:00:07.139Z,3.60
2018-07-04T12:02:34.359Z,3.55
2018-07-04T12:05:13.866Z,3.70
2018-07-04T12:07:41.119Z,3.70
2018-07-04T12:10:08.305Z,4.28
2018-07-04T12:12:35.537Z,3.52
2018-07-04T12:15:02.723Z,4.22
2018-07-04T12:17:30.054Z,3.50
2018-07-04T12:19:57.247Z,3.65
2018-07-04T12:22:24.494Z,3.72
2018-07-04T12:24:51.670Z,4.17
2018-07-04T12:27:18.885Z,3.60
2018-07-04T12:29:46.070Z,3.45
2018-07-04T12:32:13.281Z,4.30
2018-07-04T12:34:40.471Z,3.98
2018-07-04T12:37:07.699Z,3.80
2018-07-04T12:39:34.878Z,3.60
2018-07-04T12:42:02.113Z,3.83
2018-07-04T12:44:29.308Z,3.72
2018-07-04T12:46:56.566Z,4.00
2018-07-04T12:49:26.071Z,3.40
2018-07-04T12:51:53.495Z,4.05
2018-07-04T12:54:26.065Z,4.03
2018-07-04T12:57:05.591Z,3.77
2018-07-04T12:59:45.130Z,3.50
2018-07-04T13:02:24.672Z,3.75
2018-07-04T13:05:04.174Z,3.95
2018-07-04T13:07:43.700Z,3.90
2018-07-04T13:10:23.284Z,3.98
2018-07-04T13:13:02.849Z,3.50
2018-07-04T13:15:42.399Z,3.67
2018-07-04T13:18:21.815Z,4.00
2018-07-04T13:21:01.222Z,3.80
2018-07-04T13:23:40.752Z,3.55
2018-07-04T13:26:20.174Z,3.72
2018-07-04T13:28:59.674Z,3.52
2018-07-04T13:31:39.210Z,3.85
2018-07-04T13:34:18.815Z,3.80
2018-07-04T13:36:58.118Z,3.83
2018-07-04T13:39:37.598Z,4.22
2018-07-04T13:42:17.077Z,3.77
2018-07-04T13:44:56.445Z,3.72
2018-07-04T13:47:35.871Z,4.28
2018-07-04T13:50:15.258Z,3.80
2018-07-04T13:52:54.690Z,4.40
2018-07-04T13:55:34.315Z,4.12
2018-07-04T13:58:13.651Z,4.03
2018-07-04T14:00:53.150Z,3.90
2018-07-04T14:03:32.520Z,4.45
2018-07-04T14:06:11.986Z,3.80
2018-07-04T14:08:51.382Z,3.90
2018-07-04T14:11:30.782Z,3.90
2018-07-04T14:14:10.251Z,3.87
2018-07-04T14:16:49.810Z,4.37
2018-07-04T14:19:29.156Z,4.00
2018-07-04T14:22:08.675Z,4.20
2018-07-04T14:24:48.166Z,3.95
2018-07-04T14:27:28.506Z,3.72
2018-07-04T14:30:07.963Z,3.80
2018-07-04T14:32:47.405Z,3.67
2018-07-04T14:35:26.919Z,3.87
2018-07-04T14:38:06.278Z,3.92
2018-07-04T14:40:45.863Z,3.80
2018-07-04T14:43:25.311Z,4.80
2018-07-04T14:46:04.745Z,3.90
2018-07-04T14:48:44.237Z,3.80
2018-07-04T14:51:24.104Z,4.12
2018-07-04T14:54:03.716Z,4.00
2018-07-04T14:56:43.211Z,3.90
2018-07-04T14:59:22.626Z,3.95
2018-07-04T15:02:02.054Z,4.10
2018-07-04T15:04:41.724Z,4.15
2018-07-04T15:07:21.037Z,4.30
2018-07-04T15:10:00.567Z,4.40
2018-07-04T15:12:40.008Z,4.08
2018-07-04T15:15:19.574Z,3.92
2018-07-04T15:17:59.033Z,4.15
2018-07-04T15:20:38.485Z,3.72
2018-07-04T15:23:17.937Z,4.00
2018-07-04T15:25:57.261Z,4.28
2018-07-04T15:28:36.807Z,4.45
2018-07-04T15:31:16.344Z,4.00
2018-07-04T15:33:56.075Z,4.28
2018-07-04T15:36:35.583Z,4.10
2018-07-04T15:39:14.902Z,3.90
2018-07-04T15:41:54.442Z,4.45
2018-07-04T15:44:34.141Z,3.98
2018-07-04T15:47:13.703Z,4.17
2018-07-04T15:49:53.274Z,4.00
2018-07-04T15:52:32.788Z,4.30
2018-07-04T15:55:12.267Z,4.10
2018-07-04T15:57:51.934Z,4.22
2018-07-04T16:00:31.466Z,4.40
2018-07-04T16:03:11.038Z,4.15
2018-07-04T16:05:50.859Z,4.40
2018-07-04T16:08:30.206Z,4.00
2018-07-04T16:11:09.660Z,4.10
2018-07-04T16:13:49.118Z,4.17
2018-07-04T16:16:28.510Z,4.08
2018-07-04T16:19:07.983Z,5.45
2018-07-04T16:21:48.543Z,4.72
2018-07-04T16:24:28.106Z,3.85
2018-07-04T16:27:07.615Z,4.90
2018-07-04T16:29:47.043Z,4.60
2018-07-04T16:32:26.557Z,4.40
2018-07-04T16:35:05.989Z,4.55
2018-07-04T16:37:45.338Z,4.53
2018-07-04T16:40:24.903Z,4.15
2018-07-04T16:43:04.434Z,4.22
2018-07-04T16:45:43.770Z,4.50
2018-07-04T16:48:23.346Z,4.90
2018-07-04T16:51:02.813Z,4.40
2018-07-04T16:53:42.350Z,4.17
2018-07-04T16:56:22.033Z,3.95
2018-07-04T16:59:01.544Z,4.20
2018-07-04T17:01:41.010Z,4.58
2018-07-04T17:04:20.636Z,4.17
2018-07-04T17:06:59.959Z,4.53
2018-07-04T17:09:39.371Z,4.12
2018-07-04T17:12:18.943Z,3.90
2018-07-04T17:14:58.479Z,4.20
2018-07-04T17:17:38.067Z,4.47
2018-07-04T17:20:17.607Z,4.83
2018-07-04T17:22:57.126Z,4.60
2018-07-04T17:25:36.686Z,4.72
2018-07-04T17:28:16.266Z,4.53
2018-07-04T17:30:55.899Z,4.37
2018-07-04T17:33:35.328Z,4.30
2018-07-04T17:36:14.906Z,4.12
2018-07-04T17:38:54.357Z,4.35
2018-07-04T17:41:36.901Z,4.42
2018-07-04T17:44:16.558Z,3.70
2018-07-04T17:46:56.752Z,3.92
2018-07-04T17:49:36.038Z,4.22
2018-07-04T17:52:15.758Z,4.12
2018-07-04T17:54:55.055Z,4.30
2018-07-04T17:57:34.598Z,4.75
2018-07-04T18:00:14.122Z,4.58
2018-07-04T18:02:53.573Z,4.40
2018-07-04T18:05:33.017Z,4.25
2018-07-04T18:08:12.560Z,4.50
2018-07-04T18:10:52.001Z,4.58
2018-07-04T18:13:31.578Z,4.47
2018-07-04T18:16:11.158Z,4.20
2018-07-04T18:18:50.702Z,4.50
2018-07-04T18:21:30.187Z,4.67
2018-07-04T18:24:09.646Z,4.70
2018-07-04T18:26:49.287Z,4.92
2018-07-04T18:29:28.830Z,4.65
2018-07-04T18:32:08.283Z,4.90
2018-07-04T18:34:47.723Z,4.85
2018-07-04T18:37:27.682Z,4.80
2018-07-04T18:40:07.215Z,4.72
2018-07-04T18:42:46.866Z,4.72
2018-07-04T18:45:26.310Z,4.58
2018-07-04T18:48:05.927Z,5.10
2018-07-04T18:50:45.511Z,4.40
2018-07-04T18:53:24.943Z,4.80
2018-07-04T18:56:04.346Z,4.53
2018-07-04T18:58:44.781Z,4.62
2018-07-04T19:01:24.331Z,4.62
2018-07-04T19:04:03.846Z,5.08
2018-07-04T19:06:43.289Z,4.78
2018-07-04T19:09:22.701Z,4.70
2018-07-04T19:12:02.310Z,4.70
2018-07-04T19:14:41.775Z,5.10
2018-07-04T19:17:21.210Z,5.37
2018-07-04T19:20:00.650Z,4.50
2018-07-04T19:22:40.111Z,4.60
2018-07-04T19:25:19.633Z,5.10
2018-07-04T19:27:59.078Z,5.10
2018-07-04T19:30:38.635Z,5.33
2018-07-04T19:33:18.398Z,5.25
2018-07-04T19:35:57.864Z,4.80
2018-07-04T19:38:37.391Z,5.17
2018-07-04T19:41:16.914Z,5.25
2018-07-04T19:43:56.335Z,5.53
2018-07-04T19:55:50.183Z,4.95
2018-07-04T19:58:29.867Z,5.40
2018-07-04T20:01:09.643Z,5.22
2018-07-04T20:03:49.443Z,5.05
2018-07-04T20:06:29.191Z,5.67
2018-07-04T20:09:08.987Z,5.70
2018-07-04T20:11:48.743Z,5.80
2018-07-04T20:14:28.377Z,5.80
2018-07-04T20:17:07.996Z,5.08
2018-07-04T20:19:47.711Z,5.70
2018-07-04T20:22:27.521Z,5.47
2018-07-04T20:25:07.108Z,5.60
2018-07-04T20:27:46.690Z,5.45
2018-07-04T20:30:26.326Z,5.85
2018-07-04T20:33:06.063Z,5.42
2018-07-04T20:35:45.601Z,5.70
2018-07-04T20:38:25.203Z,6.10
2018-07-04T20:41:04.991Z,6.25
2018-07-04T20:43:44.673Z,6.30
2018-07-04T20:46:28.921Z,6.17
2018-07-04T20:49:08.572Z,5.92
2018-07-04T20:51:48.306Z,5.80
2018-07-04T20:54:28.129Z,5.75
2018-07-04T20:57:07.670Z,6.12
2018-07-04T20:59:47.390Z,5.90
2018-07-04T21:02:27.210Z,6.25
2018-07-04T21:05:07.013Z,6.00
2018-07-04T21:07:46.731Z,6.58
2018-07-04T21:10:26.526Z,6.00
2018-07-04T21:13:06.338Z,5.70
2018-07-04T21:15:45.967Z,6.10
2018-07-04T21:18:25.738Z,5.50
2018-07-04T21:21:05.370Z,5.60
2018-07-04T21:23:44.898Z,6.00
2018-07-04T21:26:24.418Z,6.58
2018-07-04T21:29:04.070Z,6.05
2018-07-04T21:31:43.562Z,5.85
2018-07-04T21:34:23.271Z,5.78
2018-07-04T21:37:02.912Z,6.05
2018-07-04T21:39:42.557Z,6.17
2018-07-04T21:42:22.366Z,5.95
2018-07-04T21:45:02.035Z,5.85
2018-07-04T21:47:41.707Z,6.30
2018-07-04T21:50:21.502Z,5.90
2018-07-04T21:53:01.235Z,6.62
2018-07-04T21:55:40.872Z,5.95
2018-07-04T21:58:20.547Z,6.20
2018-07-04T22:01:00.310Z,5.58
2018-07-04T22:03:40.316Z,5.83
2018-07-04T22:06:20.295Z,6.15
2018-07-04T22:08:59.903Z,5.83
2018-07-04T22:11:39.792Z,5.70
2018-07-04T22:14:19.598Z,5.45
2018-07-04T22:16:59.163Z,6.60
2018-07-04T22:19:38.914Z,6.40
2018-07-04T22:22:18.649Z,6.03
2018-07-04T22:24:58.210Z,6.10
2018-07-04T22:27:38.082Z,6.80
2018-07-04T22:30:17.785Z,6.45
2018-07-04T22:32:57.409Z,6.60
2018-07-04T22:35:37.051Z,6.45
2018-07-04T22:38:16.741Z,6.62
2018-07-04T22:40:56.527Z,6.37
2018-07-04T22:43:36.287Z,6.97
2018-07-04T22:46:16.046Z,6.70
2018-07-04T22:48:55.769Z,7.10
2018-07-04T22:51:35.466Z,6.92
2018-07-04T22:54:15.109Z,6.85
2018-07-04T22:56:54.744Z,6.60
2018-07-04T22:59:34.522Z,7.45
2018-07-04T23:02:14.287Z,7.03
2018-07-04T23:04:53.938Z,7.08
2018-07-04T23:07:33.590Z,6.75
2018-07-04T23:10:13.141Z,6.83
2018-07-04T23:12:52.967Z,7.40
2018-07-04T23:15:32.594Z,6.90
2018-07-04T23:18:12.293Z,7.20
2018-07-04T23:20:51.939Z,6.92
2018-07-04T23:23:31.722Z,7.10
2018-07-04T23:26:11.377Z,7.50
2018-07-04T23:28:51.157Z,7.50
2018-07-04T23:31:30.925Z,7.50
2018-07-04T23:34:10.721Z,7.30
2018-07-04T23:36:50.469Z,8.10
2018-07-04T23:39:30.158Z,7.33
2018-07-04T23:42:09.859Z,6.50
2018-07-04T23:44:49.663Z,7.40
2018-07-04T23:47:29.533Z,6.95
2018-07-04T23:50:09.362Z,7.12
2018-07-04T23:52:49.024Z,7.08
2018-07-04T23:55:28.797Z,6.87
2018-07-04T23:58:08.324Z,6.92
